Norris Rancho Marino Reserve, California Weather observations

Data are for 10 minute period ending at time listed.
 Day   Time   Solar   Ave.   Ave.  Ave.  Vector  Max.   Baro.   Total    
  of    of     Rad.   Air    Rel.  Wind   Wind   Wind  Press.  Precip.   
Year   Day            Temp.  Hum.  Speed  Dir.   Gust                    
2016   (PST)  Kw/m2    F      %     mph   deg.    mph    mb.     in.     
-------------------------------------------------------------------------
 208    2:20   0.00   49.7    99    0.5    36     1.6   1009.2    0.00 
 208    2:30   0.00   49.7    99    1.0    77     2.2   1009.3    0.00 
 208    2:40   0.00   50.0    99    1.8   137     3.8   1009.3    0.00 
 208    2:50   0.00   49.8    99    1.8   144     4.1   1009.3    0.00 
 208    3:00   0.00   49.8    99    1.1    95     3.4   1009.3    0.00 
 208    3:10   0.00   50.0    99    1.8   134     3.1   1009.3    0.00 
 208    3:20   0.00   50.0    99    1.8   241     3.0   1009.3    0.00 
 208    3:30   0.00   49.8    99    1.4   246     3.2   1009.4    0.00 
 208    3:40   0.00   49.9    99    0.7   241     2.9   1009.4    0.00 
 208    3:50   0.00   50.0    99    1.8   231     3.1   1009.5    0.00 
 208    4:00   0.00   50.1    99    0.7   268     1.8   1009.7    0.00 
 208    4:10   0.00   50.1    99    1.5   190     2.8   1009.7    0.00 
 208    4:20   0.00   50.1    99    1.7   222     2.6   1009.8    0.00 
 208    4:30   0.00   50.1    99    1.6   271     2.6   1009.7    0.00 
 208    4:40   0.00   50.2    99    0.9    84     3.1   1009.7    0.00 
 208    4:50   0.00   50.0    99    1.0   137     2.1   1009.7    0.00 
 208    5:00   0.00   50.1    99    1.1   173     2.3   1009.9    0.00 
 208    5:10   0.00   50.3    99    0.4   135     1.8   1009.9    0.00 
 208    5:20   0.00   50.3    99    1.9   328     2.6   1009.9    0.00 
 208    5:30   0.01   50.5    99    1.1    17     2.2   1009.9    0.00 
 208    5:40   0.01   50.5    99    0.7    11     1.8   1010.0    0.00 
 208    5:50   0.01   50.6    99    1.8   201     3.4   1010.1    0.00 
 208    6:00   0.03   50.5    99    1.3   213     2.8   1010.1    0.00 
 208    6:10   0.03   50.4    99    0.8   261     1.5   1010.2    0.00 
 208    6:20   0.04   50.4    99    1.7   305     3.5   1010.1    0.00 
 208    6:30   0.06   50.5    99    3.0   274     5.5   1010.1    0.00 
 208    6:40   0.07   50.5    99    3.0   276     4.1   1010.1    0.00 
 208    6:50   0.07   50.5    99    3.0   242     5.0   1010.2    0.00 
 208    7:00   0.08   50.3    99    3.1   231     4.1   1010.4    0.00 
 208    7:10   0.10   50.3    99    1.7   221     3.1   1010.4    0.00 
 208    7:20   0.10   50.3    99    3.1   206     4.1   1010.5    0.00 
 208    7:30   0.12   50.6    99    2.3   170     3.7   1010.7    0.00 
 208    7:40   0.13   50.5    99    3.5   184     4.8   1010.8    0.00 
 208    7:50   0.14   50.6    99    3.0   180     4.2   1011.0    0.00 
 208    8:00   0.17   50.8    99    3.0   184     4.2   1011.0    0.00 
 208    8:10   0.19   51.2    99    2.0   194     3.2   1011.0    0.00 
 208    8:20   0.21   51.4    99    2.5   200     3.4   1011.1    0.00 
 208    8:30   0.23   51.1    99    2.6   230     3.8   1011.1    0.00 
 208    8:40   0.25   51.1    99    4.2   266     6.0   1011.0    0.00 
 208    8:50   0.31   51.2    99    4.5   268     6.5   1010.9    0.00 
 208    9:00   0.37   51.1    99    5.2   275     7.0   1010.9    0.00 
 208    9:10   0.47   51.3    99    6.2   275     8.0   1010.8    0.00 
 208    9:20   0.56   51.1    99    6.1   274     7.7   1011.0    0.00 
 208    9:30   0.59   51.2    99    5.3   270     7.2   1011.1    0.00 
 208    9:40   0.65   51.3    99    5.3   264     7.2   1011.2    0.00 
 208    9:50   0.69   51.4    99    6.4   276     8.2   1011.0    0.00 
 208   10:00   0.73   51.8    99    7.0   273     9.3   1010.9    0.00 
 208   10:10   0.75   51.8    99    7.2   274     9.0   1010.9    0.00 
 208   10:20   0.78   51.9    99    7.9   276    10.2   1010.9    0.00 
 208   10:30   0.79   52.6    99    8.0   276    10.4   1010.8    0.00 
 208   10:40   0.80   53.2    98    8.4   277    10.7   1010.8    0.00 
 208   10:50   0.83   53.8    98    8.6   278    10.8   1010.7    0.00 
 208   11:00   0.82   54.0    97    9.4   279    11.2   1010.6    0.00 
 208   11:10   0.85   54.2    95    9.5   279    12.1   1010.5    0.00 
 208   11:20   0.86   55.1    91    9.8   282    12.2   1010.4    0.00 
 208   11:30   0.86   55.0    89    9.8   279    11.7   1010.3    0.00 
 208   11:40   0.86   55.4    88    9.8   278    12.3   1010.2    0.00 
 208   11:50   0.88   55.7    87    9.0   280    12.3   1010.4    0.00 
 208   12:00   0.89   55.6    87    9.0   284    11.1   1010.4    0.00 
 208   12:10   0.92   55.4    88    9.1   281    11.5   1010.3    0.00 
 208   12:20   0.89   56.0    87    9.9   279    12.4   1010.3    0.00 
 208   12:30   0.89   55.6    88   11.0   279    13.6   1010.2    0.00 
 208   12:40   0.89   55.9    88   10.4   282    12.4   1010.1    0.00 
 208   12:50   0.88   56.4    86    9.8   282    11.8   1010.2    0.00 
 208   13:00   0.89   56.5    87    9.9   280    11.8   1010.1    0.00 
 208   13:10   0.88   56.7    86    9.8   283    12.1   1009.9    0.00 
 208   13:20   0.87   56.6    86   10.2   281    12.1   1009.9    0.00 
 208   13:30   0.84   56.4    87    8.9   276    11.8   1010.0    0.00 
 208   13:40   0.85   56.9    86    8.5   278    10.5   1009.9    0.00 
 208   13:50   0.84   57.1    85    8.8   280    10.7   1009.8    0.00 
 208   14:00   0.79   56.8    86    9.7   280    11.7   1009.6    0.00 
 208   14:10   0.81   57.4    85    9.8   283    11.8   1009.5    0.00 
 208   14:20   0.79   57.1    86   10.1   282    12.2   1009.4    0.00 
 208   14:30   0.77   57.5    85   10.1   282    11.9   1009.3    0.00 
 208   14:40   0.76   56.7    87    9.9   282    11.8   1009.2    0.00 
 208   14:50   0.73   57.0    87    9.5   282    11.1   1009.1    0.00 
 208   15:00   0.72   56.6    88   10.6   283    12.6   1009.0    0.00 
 208   15:10   0.68   57.1    86    9.6   281    11.7   1009.1    0.00 
 208   15:20   0.67   56.6    88    8.6   280    10.7   1009.1    0.00 
 208   15:30   0.64   56.3    88    8.1   276    10.1   1009.1    0.00 
 208   15:40   0.59   56.2    89    7.1   274     9.5   1009.1    0.00 
 208   15:50   0.49   56.1    89    6.2   275     8.0   1009.1    0.00 
 208   16:00   0.49   56.0    88    6.3   278     8.6   1009.0    0.00 
 208   16:10   0.41   55.6    90    6.1   274     8.5   1009.0    0.00 
 208   16:20   0.39   55.1    91    5.8   278     7.3   1008.9    0.00 
 208   16:30   0.33   55.0    92    5.0   265     6.8   1009.0    0.00 
 208   16:40   0.30   55.3    92    3.8   260     5.9   1009.2    0.00 
 208   16:50   0.22   54.7    92    4.9   272     6.9   1009.1    0.00 
 208   17:00   0.14   54.1    94    3.2   253     5.2   1009.3    0.00 
 208   17:10   0.16   54.0    94    2.6   233     4.5   1009.4    0.00 
 208   17:20   0.13   54.3    95    1.6   236     3.9   1009.4    0.00 
 208   17:30   0.10   54.2    95    2.2   230     3.7   1009.5    0.00 
 208   17:40   0.12   54.0    95    2.9   282     4.9   1009.5    0.00 
 208   17:50   0.15   53.9    95    3.9   271     5.6   1009.4    0.00 
 208   18:00   0.08   53.6    95    4.0   268     5.5   1009.3    0.00 
 208   18:10   0.09   53.5    95    3.6   262     5.4   1009.3    0.00 
 208   18:20   0.07   53.2    96    3.2   268     4.0   1009.3    0.00 
 208   18:30   0.04   53.1    96    2.4   267     3.7   1009.3    0.00 
 208   18:40   0.03   53.0    96    2.4   282     3.9   1009.1    0.00 
 208   18:50   0.02   52.9    97    3.6   278     4.7   1008.9    0.00 
 208   19:00   0.01   52.6    97    3.4   286     4.9   1008.9    0.00 
 208   19:10   0.01   52.5    97    3.6   279     5.3   1008.9    0.00 
 208   19:20   0.00   52.3    97    3.3   286     4.4   1008.9    0.00 
 208   19:30   0.00   52.3    98    3.2   283     4.8   1008.9    0.00 
 208   19:40   0.00   52.2    98    3.6   289     5.0   1008.9    0.00 
 208   19:50   0.00   52.1    98    4.0   303     5.3   1008.9    0.00 
 208   20:00   0.00   51.9    98    4.2   302     6.2   1009.0    0.00 
 208   20:10   0.00   52.0    98    4.6   292     5.7   1009.1    0.00 
 208   20:20   0.00   51.8    98    4.3   305     5.8   1009.3    0.00 
 208   20:30   0.00   51.8    98    4.1   320     6.1   1009.3    0.00 
 208   20:40   0.00   51.9    98    4.9   322     7.3   1009.4    0.00 
 208   20:50   0.00   51.9    98    4.5   313     6.0   1009.5    0.00 
 208   21:00   0.00   51.7    98    5.6   307     6.6   1009.5    0.00 
 208   21:10   0.00   51.5    98    6.0   297     6.9   1009.5    0.00 
 208   21:20   0.00   51.5    98    6.4   299     7.3   1009.5    0.00 
 208   21:30   0.00   51.5    98    5.8   295     6.8   1009.5    0.00 
 208   21:40   0.00   51.4    98    5.7   299     6.7   1009.4    0.00 
 208   21:50   0.00   51.3    98    5.8   298     7.0   1009.2    0.00 
 208   22:00   0.00   50.8    98    2.1   315     5.3   1009.1    0.00 
 208   22:10   0.00   50.5    98    0.8   338     2.1   1009.1    0.00 
 208   22:20   0.00   50.9    98    3.0   315     5.8   1009.0    0.00 
 208   22:30   0.00   51.0    98    4.9   304     5.9   1009.0    0.00 
 208   22:40   0.00   50.7    98    4.4   305     4.9   1008.9    0.00 
 208   22:50   0.00   49.9    98    1.8   321     4.8   1008.7    0.00 
 208   23:00   0.00   49.8    98    0.8   349     1.6   1008.7    0.00 
 208   23:10   0.00   50.0    98    1.7   319     4.0   1008.4    0.00 
 208   23:20   0.00   50.3    98    4.4   310     6.3   1008.4    0.00 
 208   23:30   0.00   50.5    98    6.2   302     7.8   1008.4    0.00 
 208   23:40   0.00   50.4    98    5.6   303     6.5   1008.4    0.00 
 208   23:50   0.00   50.5    98    4.3   307     5.7   1008.4    0.00 
 209    0:00   0.00   50.8    98    3.5   304     5.0   1008.4    0.00 
 209    0:10   0.00   51.0    98    3.7   313     4.5   1008.5    0.00 
 209    0:20   0.00   51.1    98    3.0   317     4.4   1008.5    0.00 
 209    0:30   0.00   51.4    98    3.8   321     5.4   1008.5    0.00 
 209    0:40   0.00   51.8    98    4.0   322     5.5   1008.4    0.00 
 209    0:50   0.00   51.8    98    3.6   314     5.1   1008.4    0.00 
 209    1:00   0.00   51.3    98    3.9   298     4.7   1008.4    0.00 
 209    1:10   0.00   51.4    97    3.8   308     4.9   1008.4    0.00 
 209    1:20   0.00   51.4    97    3.9   306     4.6   1008.3    0.00 
 209    1:30   0.00   51.4    97    4.1   307     5.2   1008.2    0.00 
 209    1:40   0.00   51.9    97    3.7   316     4.8   1008.2    0.00 
 209    1:50   0.00   52.1    97    1.8   317     3.6   1008.2    0.00 
 209    2:00   0.00   52.0    96    1.7   322     3.4   1008.3    0.00 
 209    2:10   0.00   52.1    96    2.0   327     3.8   1008.2    0.00 

Return to Norris Rancho Marino Reserve graphs page.


Western Regional Climate Center,wrcc@dri.edu